sensor_id;sensor_type;location;lat;lon;timestamp;P1;durP1;ratioP1;P2;durP2;ratioP2
55647;SDS011;45266;48.756;9.246;2023-05-15T00:00:39;5.15;;;4.65;;
55647;SDS011;45266;48.756;9.246;2023-05-15T00:01:42;5.50;;;4.77;;
55647;SDS011;45266;48.756;9.246;2023-05-15T00:02:43;5.23;;;4.40;;
55647;SDS011;45266;48.756;9.246;2023-05-15T00:03:45;5.37;;;4.77;;
55647;SDS011;45266;48.756;9.246;2023-05-15T00:04:48;5.20;;;4.70;;
55647;SDS011;45266;48.756;9.246;2023-05-15T00:05:50;5.00;;;4.50;;
55647;SDS011;45266;48.756;9.246;2023-05-15T00:06:52;6.10;;;4.57;;
55647;SDS011;45266;48.756;9.246;2023-05-15T00:07:54;5.88;;;4.88;;
55647;SDS011;45266;48.756;9.246;2023-05-15T00:08:56;5.97;;;4.40;;
55647;SDS011;45266;48.756;9.246;2023-05-15T00:10:00;5.67;;;5.07;;
55647;SDS011;45266;48.756;9.246;2023-05-15T00:11:02;6.77;;;4.90;;
55647;SDS011;45266;48.756;9.246;2023-05-15T00:12:04;5.90;;;4.57;;
55647;SDS011;45266;48.756;9.246;2023-05-15T00:13:05;4.95;;;4.50;;
55647;SDS011;45266;48.756;9.246;2023-05-15T00:14:07;6.43;;;5.00;;
55647;SDS011;45266;48.756;9.246;2023-05-15T00:15:09;5.00;;;4.50;;
55647;SDS011;45266;48.756;9.246;2023-05-15T00:16:11;5.65;;;4.38;;
55647;SDS011;45266;48.756;9.246;2023-05-15T00:17:13;7.23;;;4.60;;
55647;SDS011;45266;48.756;9.246;2023-05-15T00:18:15;6.80;;;4.53;;
55647;SDS011;45266;48.756;9.246;2023-05-15T00:19:16;5.40;;;4.90;;
55647;SDS011;45266;48.756;9.246;2023-05-15T00:20:18;6.20;;;4.60;;
55647;SDS011;45266;48.756;9.246;2023-05-15T00:21:20;4.90;;;4.40;;
55647;SDS011;45266;48.756;9.246;2023-05-15T00:22:22;5.68;;;4.82;;
55647;SDS011;45266;48.756;9.246;2023-05-15T00:23:24;6.23;;;4.90;;
55647;SDS011;45266;48.756;9.246;2023-05-15T00:24:26;4.93;;;4.43;;
55647;SDS011;45266;48.756;9.246;2023-05-15T00:25:28;5.87;;;4.70;;
55647;SDS011;45266;48.756;9.246;2023-05-15T00:26:29;6.43;;;4.75;;
55647;SDS011;45266;48.756;9.246;2023-05-15T00:27:31;4.93;;;4.30;;
55647;SDS011;45266;48.756;9.246;2023-05-15T00:28:33;5.67;;;4.83;;
55647;SDS011;45266;48.756;9.246;2023-05-15T00:29:35;5.40;;;4.40;;
55647;SDS011;45266;48.756;9.246;2023-05-15T00:30:37;5.60;;;4.60;;
55647;SDS011;45266;48.756;9.246;2023-05-15T00:31:39;6.57;;;4.60;;
55647;SDS011;45266;48.756;9.246;2023-05-15T00:32:41;6.53;;;5.13;;
55647;SDS011;45266;48.756;9.246;2023-05-15T00:33:43;5.77;;;4.90;;
55647;SDS011;45266;48.756;9.246;2023-05-15T00:34:44;6.23;;;5.03;;
55647;SDS011;45266;48.756;9.246;2023-05-15T00:35:46;5.07;;;4.50;;
55647;SDS011;45266;48.756;9.246;2023-05-15T00:36:48;6.70;;;4.53;;
55647;SDS011;45266;48.756;9.246;2023-05-15T00:37:50;6.25;;;4.78;;
55647;SDS011;45266;48.756;9.246;2023-05-15T00:38:51;6.40;;;4.67;;
55647;SDS011;45266;48.756;9.246;2023-05-15T00:39:54;5.30;;;4.40;;
55647;SDS011;45266;48.756;9.246;2023-05-15T00:40:55;7.77;;;5.20;;
55647;SDS011;45266;48.756;9.246;2023-05-15T00:41:57;5.07;;;4.17;;
55647;SDS011;45266;48.756;9.246;2023-05-15T00:43:02;6.10;;;4.73;;
55647;SDS011;45266;48.756;9.246;2023-05-15T00:44:05;8.80;;;5.17;;
55647;SDS011;45266;48.756;9.246;2023-05-15T00:45:08;11.57;;;5.50;;
55647;SDS011;45266;48.756;9.246;2023-05-15T00:46:11;5.70;;;4.93;;
55647;SDS011;45266;48.756;9.246;2023-05-15T00:47:14;5.35;;;4.82;;
55647;SDS011;45266;48.756;9.246;2023-05-15T00:48:17;7.05;;;5.00;;
55647;SDS011;45266;48.756;9.246;2023-05-15T00:49:22;5.40;;;4.50;;
55647;SDS011;45266;48.756;9.246;2023-05-15T00:50:28;6.83;;;4.83;;
55647;SDS011;45266;48.756;9.246;2023-05-15T00:51:30;7.50;;;4.93;;
55647;SDS011;45266;48.756;9.246;2023-05-15T00:52:32;5.90;;;4.50;;
55647;SDS011;45266;48.756;9.246;2023-05-15T00:53:34;4.37;;;3.97;;
55647;SDS011;45266;48.756;9.246;2023-05-15T00:54:36;5.00;;;4.50;;
55647;SDS011;45266;48.756;9.246;2023-05-15T00:55:38;5.77;;;4.80;;
55647;SDS011;45266;48.756;9.246;2023-05-15T00:56:42;4.77;;;4.27;;
55647;SDS011;45266;48.756;9.246;2023-05-15T00:57:46;8.00;;;5.00;;
55647;SDS011;45266;48.756;9.246;2023-05-15T00:58:49;5.97;;;4.50;;
55647;SDS011;45266;48.756;9.246;2023-05-15T00:59:53;4.75;;;4.32;;
55647;SDS011;45266;48.756;9.246;2023-05-15T01:00:57;4.90;;;4.50;;
55647;SDS011;45266;48.756;9.246;2023-05-15T01:01:59;4.90;;;4.40;;
55647;SDS011;45266;48.756;9.246;2023-05-15T01:03:01;5.25;;;4.75;;
55647;SDS011;45266;48.756;9.246;2023-05-15T01:04:03;5.20;;;4.70;;
55647;SDS011;45266;48.756;9.246;2023-05-15T01:05:05;6.90;;;4.77;;
55647;SDS011;45266;48.756;9.246;2023-05-15T01:06:08;5.17;;;4.67;;
55647;SDS011;45266;48.756;9.246;2023-05-15T01:07:10;6.80;;;4.80;;
55647;SDS011;45266;48.756;9.246;2023-05-15T01:08:26;5.83;;;4.40;;
55647;SDS011;45266;48.756;9.246;2023-05-15T01:09:43;6.27;;;4.83;;
55647;SDS011;45266;48.756;9.246;2023-05-15T01:10:47;9.70;;;4.40;;
55647;SDS011;45266;48.756;9.246;2023-05-15T01:11:53;5.20;;;4.70;;
55647;SDS011;45266;48.756;9.246;2023-05-15T01:12:57;5.03;;;4.53;;
55647;SDS011;45266;48.756;9.246;2023-05-15T01:13:59;6.50;;;5.10;;
55647;SDS011;45266;48.756;9.246;2023-05-15T01:15:01;6.53;;;4.70;;
55647;SDS011;45266;48.756;9.246;2023-05-15T01:16:03;6.18;;;4.75;;
55647;SDS011;45266;48.756;9.246;2023-05-15T01:17:06;6.03;;;5.00;;
55647;SDS011;45266;48.756;9.246;2023-05-15T01:18:08;5.28;;;4.78;;
55647;SDS011;45266;48.756;9.246;2023-05-15T01:19:10;4.83;;;4.37;;
55647;SDS011;45266;48.756;9.246;2023-05-15T01:20:12;4.97;;;4.47;;
55647;SDS011;45266;48.756;9.246;2023-05-15T01:25:55;5.30;;;4.77;;
55647;SDS011;45266;48.756;9.246;2023-05-15T01:28:13;5.23;;;4.53;;
55647;SDS011;45266;48.756;9.246;2023-05-15T01:29:22;7.30;;;4.43;;
55647;SDS011;45266;48.756;9.246;2023-05-15T01:30:31;5.10;;;4.60;;
55647;SDS011;45266;48.756;9.246;2023-05-15T01:31:35;5.70;;;4.73;;
55647;SDS011;45266;48.756;9.246;2023-05-15T01:32:46;5.13;;;4.17;;
55647;SDS011;45266;48.756;9.246;2023-05-15T01:33:58;6.27;;;4.90;;
55647;SDS011;45266;48.756;9.246;2023-05-15T01:35:15;5.40;;;4.83;;
55647;SDS011;45266;48.756;9.246;2023-05-15T01:36:32;5.18;;;4.45;;
55647;SDS011;45266;48.756;9.246;2023-05-15T01:37:39;5.63;;;4.50;;
55647;SDS011;45266;48.756;9.246;2023-05-15T01:38:51;4.93;;;4.35;;
55647;SDS011;45266;48.756;9.246;2023-05-15T01:40:01;4.57;;;4.13;;
55647;SDS011;45266;48.756;9.246;2023-05-15T01:41:23;5.07;;;4.57;;
55647;SDS011;45266;48.756;9.246;2023-05-15T01:42:32;5.18;;;4.20;;
55647;SDS011;45266;48.756;9.246;2023-05-15T01:43:37;5.82;;;4.30;;
55647;SDS011;45266;48.756;9.246;2023-05-15T01:44:44;5.10;;;4.60;;
55647;SDS011;45266;48.756;9.246;2023-05-15T01:45:51;5.57;;;4.47;;
55647;SDS011;45266;48.756;9.246;2023-05-15T01:46:56;5.05;;;4.53;;
55647;SDS011;45266;48.756;9.246;2023-05-15T01:48:00;6.87;;;4.60;;
55647;SDS011;45266;48.756;9.246;2023-05-15T01:49:05;5.23;;;4.13;;
55647;SDS011;45266;48.756;9.246;2023-05-15T01:50:12;5.50;;;4.87;;
55647;SDS011;45266;48.756;9.246;2023-05-15T01:51:16;5.50;;;4.60;;
55647;SDS011;45266;48.756;9.246;2023-05-15T01:53:51;5.03;;;4.50;;
55647;SDS011;45266;48.756;9.246;2023-05-15T01:54:54;6.43;;;4.40;;
55647;SDS011;45266;48.756;9.246;2023-05-15T01:55:57;5.13;;;4.47;;
55647;SDS011;45266;48.756;9.246;2023-05-15T01:56:59;5.97;;;4.77;;
55647;SDS011;45266;48.756;9.246;2023-05-15T01:58:02;4.85;;;4.45;;
55647;SDS011;45266;48.756;9.246;2023-05-15T01:59:05;5.32;;;4.25;;
55647;SDS011;45266;48.756;9.246;2023-05-15T02:00:09;4.78;;;4.35;;
55647;SDS011;45266;48.756;9.246;2023-05-15T02:01:11;7.63;;;4.40;;
55647;SDS011;45266;48.756;9.246;2023-05-15T02:02:14;4.95;;;4.45;;
55647;SDS011;45266;48.756;9.246;2023-05-15T02:03:17;6.20;;;4.83;;
55647;SDS011;45266;48.756;9.246;2023-05-15T02:04:20;5.23;;;4.67;;
55647;SDS011;45266;48.756;9.246;2023-05-15T02:05:23;5.65;;;4.80;;
55647;SDS011;45266;48.756;9.246;2023-05-15T02:06:27;5.50;;;4.45;;
55647;SDS011;45266;48.756;9.246;2023-05-15T02:07:30;6.07;;;4.50;;
55647;SDS011;45266;48.756;9.246;2023-05-15T02:08:32;9.10;;;4.90;;
55647;SDS011;45266;48.756;9.246;2023-05-15T02:09:35;5.75;;;4.53;;
55647;SDS011;45266;48.756;9.246;2023-05-15T02:10:37;5.73;;;4.43;;
55647;SDS011;45266;48.756;9.246;2023-05-15T02:11:40;4.65;;;4.22;;
55647;SDS011;45266;48.756;9.246;2023-05-15T02:12:42;4.67;;;4.23;;
55647;SDS011;45266;48.756;9.246;2023-05-15T02:13:45;7.63;;;5.17;;
55647;SDS011;45266;48.756;9.246;2023-05-15T02:14:48;6.30;;;4.05;;
55647;SDS011;45266;48.756;9.246;2023-05-15T02:15:50;6.00;;;5.20;;
55647;SDS011;45266;48.756;9.246;2023-05-15T02:16:52;5.88;;;4.97;;
55647;SDS011;45266;48.756;9.246;2023-05-15T02:17:54;6.50;;;4.70;;
55647;SDS011;45266;48.756;9.246;2023-05-15T02:18:56;5.63;;;4.93;;
55647;SDS011;45266;48.756;9.246;2023-05-15T02:19:58;5.75;;;4.82;;
55647;SDS011;45266;48.756;9.246;2023-05-15T02:21:00;6.60;;;4.55;;
55647;SDS011;45266;48.756;9.246;2023-05-15T02:22:03;5.20;;;4.70;;
55647;SDS011;45266;48.756;9.246;2023-05-15T02:23:05;5.65;;;4.60;;
55647;SDS011;45266;48.756;9.246;2023-05-15T02:24:06;6.07;;;4.57;;
55647;SDS011;45266;48.756;9.246;2023-05-15T02:25:08;4.68;;;4.25;;
55647;SDS011;45266;48.756;9.246;2023-05-15T02:27:26;5.50;;;4.20;;
55647;SDS011;45266;48.756;9.246;2023-05-15T02:28:40;5.05;;;4.55;;
55647;SDS011;45266;48.756;9.246;2023-05-15T02:31:17;6.60;;;4.73;;
55647;SDS011;45266;48.756;9.246;2023-05-15T02:32:42;5.07;;;4.55;;
55647;SDS011;45266;48.756;9.246;2023-05-15T02:34:16;7.47;;;5.67;;
55647;SDS011;45266;48.756;9.246;2023-05-15T02:36:28;6.00;;;4.35;;
55647;SDS011;45266;48.756;9.246;2023-05-15T02:37:34;7.57;;;4.78;;
55647;SDS011;45266;48.756;9.246;2023-05-15T02:38:46;5.18;;;4.35;;
55647;SDS011;45266;48.756;9.246;2023-05-15T02:39:50;5.30;;;4.78;;
55647;SDS011;45266;48.756;9.246;2023-05-15T02:40:55;5.73;;;4.50;;
55647;SDS011;45266;48.756;9.246;2023-05-15T02:41:59;6.80;;;4.47;;
55647;SDS011;45266;48.756;9.246;2023-05-15T02:43:02;9.80;;;4.40;;
55647;SDS011;45266;48.756;9.246;2023-05-15T02:44:05;5.78;;;4.95;;
55647;SDS011;45266;48.756;9.246;2023-05-15T02:45:08;4.97;;;4.47;;
55647;SDS011;45266;48.756;9.246;2023-05-15T02:46:11;5.05;;;4.35;;
55647;SDS011;45266;48.756;9.246;2023-05-15T02:47:15;7.83;;;4.60;;
55647;SDS011;45266;48.756;9.246;2023-05-15T02:48:17;4.87;;;4.43;;
55647;SDS011;45266;48.756;9.246;2023-05-15T02:49:19;6.28;;;4.25;;
55647;SDS011;45266;48.756;9.246;2023-05-15T02:50:22;5.13;;;4.63;;
55647;SDS011;45266;48.756;9.246;2023-05-15T02:51:24;7.20;;;4.77;;
55647;SDS011;45266;48.756;9.246;2023-05-15T02:52:26;5.55;;;4.95;;
55647;SDS011;45266;48.756;9.246;2023-05-15T02:53:27;6.60;;;4.85;;
55647;SDS011;45266;48.756;9.246;2023-05-15T02:54:29;6.70;;;4.90;;
55647;SDS011;45266;48.756;9.246;2023-05-15T02:55:34;6.57;;;4.78;;
55647;SDS011;45266;48.756;9.246;2023-05-15T02:56:38;6.00;;;4.75;;
55647;SDS011;45266;48.756;9.246;2023-05-15T02:57:40;5.38;;;4.88;;
55647;SDS011;45266;48.756;9.246;2023-05-15T02:58:42;5.63;;;5.00;;
55647;SDS011;45266;48.756;9.246;2023-05-15T02:59:44;5.43;;;4.73;;
55647;SDS011;45266;48.756;9.246;2023-05-15T03:00:46;5.70;;;4.60;;
55647;SDS011;45266;48.756;9.246;2023-05-15T03:01:47;6.50;;;4.95;;
55647;SDS011;45266;48.756;9.246;2023-05-15T03:02:49;5.10;;;4.60;;
55647;SDS011;45266;48.756;9.246;2023-05-15T03:03:51;8.35;;;4.82;;
55647;SDS011;45266;48.756;9.246;2023-05-15T03:04:53;5.50;;;4.80;;
55647;SDS011;45266;48.756;9.246;2023-05-15T03:05:55;5.88;;;5.00;;
55647;SDS011;45266;48.756;9.246;2023-05-15T03:06:57;7.40;;;4.20;;
55647;SDS011;45266;48.756;9.246;2023-05-15T03:07:59;5.63;;;4.88;;
55647;SDS011;45266;48.756;9.246;2023-05-15T03:09:01;5.45;;;4.70;;
55647;SDS011;45266;48.756;9.246;2023-05-15T03:10:02;10.82;;;4.57;;
55647;SDS011;45266;48.756;9.246;2023-05-15T03:11:04;7.33;;;5.03;;
55647;SDS011;45266;48.756;9.246;2023-05-15T03:12:06;5.65;;;4.70;;
55647;SDS011;45266;48.756;9.246;2023-05-15T03:13:09;6.07;;;5.00;;
55647;SDS011;45266;48.756;9.246;2023-05-15T03:14:11;5.67;;;4.83;;
55647;SDS011;45266;48.756;9.246;2023-05-15T03:15:12;5.90;;;4.90;;
55647;SDS011;45266;48.756;9.246;2023-05-15T03:16:14;5.38;;;4.88;;
55647;SDS011;45266;48.756;9.246;2023-05-15T03:17:16;5.57;;;4.97;;
55647;SDS011;45266;48.756;9.246;2023-05-15T03:18:18;5.30;;;4.78;;
55647;SDS011;45266;48.756;9.246;2023-05-15T03:19:20;6.30;;;4.80;;
55647;SDS011;45266;48.756;9.246;2023-05-15T03:20:21;6.82;;;5.20;;
55647;SDS011;45266;48.756;9.246;2023-05-15T03:21:23;7.63;;;5.03;;
55647;SDS011;45266;48.756;9.246;2023-05-15T03:22:25;5.45;;;4.90;;
55647;SDS011;45266;48.756;9.246;2023-05-15T03:23:27;6.35;;;5.18;;
55647;SDS011;45266;48.756;9.246;2023-05-15T03:24:29;7.07;;;4.97;;
55647;SDS011;45266;48.756;9.246;2023-05-15T03:25:31;5.68;;;4.55;;
55647;SDS011;45266;48.756;9.246;2023-05-15T03:26:32;5.87;;;4.80;;
55647;SDS011;45266;48.756;9.246;2023-05-15T03:27:34;5.10;;;4.60;;
55647;SDS011;45266;48.756;9.246;2023-05-15T03:28:36;7.45;;;5.35;;
55647;SDS011;45266;48.756;9.246;2023-05-15T03:29:40;5.50;;;5.00;;
55647;SDS011;45266;48.756;9.246;2023-05-15T03:30:43;6.93;;;5.47;;
55647;SDS011;45266;48.756;9.246;2023-05-15T03:31:45;7.40;;;4.60;;
55647;SDS011;45266;48.756;9.246;2023-05-15T03:32:47;5.32;;;4.82;;
55647;SDS011;45266;48.756;9.246;2023-05-15T03:33:49;5.55;;;4.82;;
55647;SDS011;45266;48.756;9.246;2023-05-15T03:34:51;7.30;;;5.43;;
55647;SDS011;45266;48.756;9.246;2023-05-15T03:35:53;5.00;;;4.50;;
55647;SDS011;45266;48.756;9.246;2023-05-15T03:36:55;7.60;;;5.20;;
55647;SDS011;45266;48.756;9.246;2023-05-15T03:37:57;5.35;;;4.65;;
55647;SDS011;45266;48.756;9.246;2023-05-15T03:38:58;7.10;;;4.45;;
55647;SDS011;45266;48.756;9.246;2023-05-15T03:40:00;7.37;;;5.00;;
55647;SDS011;45266;48.756;9.246;2023-05-15T03:41:02;8.20;;;5.65;;
55647;SDS011;45266;48.756;9.246;2023-05-15T03:42:04;5.53;;;5.03;;
55647;SDS011;45266;48.756;9.246;2023-05-15T03:43:06;10.38;;;7.10;;
55647;SDS011;45266;48.756;9.246;2023-05-15T03:44:08;7.07;;;6.38;;
55647;SDS011;45266;48.756;9.246;2023-05-15T03:45:09;6.28;;;5.63;;
55647;SDS011;45266;48.756;9.246;2023-05-15T03:46:11;6.30;;;4.80;;
55647;SDS011;45266;48.756;9.246;2023-05-15T03:47:13;6.07;;;5.47;;
55647;SDS011;45266;48.756;9.246;2023-05-15T03:48:15;6.53;;;4.87;;
55647;SDS011;45266;48.756;9.246;2023-05-15T03:49:17;6.15;;;4.65;;
55647;SDS011;45266;48.756;9.246;2023-05-15T03:50:18;5.20;;;4.70;;
55647;SDS011;45266;48.756;9.246;2023-05-15T03:51:21;6.28;;;4.85;;
55647;SDS011;45266;48.756;9.246;2023-05-15T03:52:24;5.63;;;4.50;;
55647;SDS011;45266;48.756;9.246;2023-05-15T03:53:26;6.47;;;4.75;;
55647;SDS011;45266;48.756;9.246;2023-05-15T03:54:27;5.32;;;4.72;;
55647;SDS011;45266;48.756;9.246;2023-05-15T03:55:30;7.60;;;4.95;;
55647;SDS011;45266;48.756;9.246;2023-05-15T03:56:32;5.07;;;4.22;;
55647;SDS011;45266;48.756;9.246;2023-05-15T03:57:37;7.00;;;4.82;;
55647;SDS011;45266;48.756;9.246;2023-05-15T03:58:43;5.43;;;4.68;;
55647;SDS011;45266;48.756;9.246;2023-05-15T03:59:45;5.37;;;4.87;;
55647;SDS011;45266;48.756;9.246;2023-05-15T04:00:46;5.57;;;5.07;;
55647;SDS011;45266;48.756;9.246;2023-05-15T04:01:49;6.57;;;4.80;;
55647;SDS011;45266;48.756;9.246;2023-05-15T04:03:04;6.30;;;5.43;;
55647;SDS011;45266;48.756;9.246;2023-05-15T04:04:06;5.47;;;4.40;;
55647;SDS011;45266;48.756;9.246;2023-05-15T04:05:08;6.20;;;5.00;;
55647;SDS011;45266;48.756;9.246;2023-05-15T04:06:11;5.13;;;4.45;;
55647;SDS011;45266;48.756;9.246;2023-05-15T04:07:12;5.43;;;4.90;;
55647;SDS011;45266;48.756;9.246;2023-05-15T04:08:14;5.25;;;4.68;;
55647;SDS011;45266;48.756;9.246;2023-05-15T04:09:16;5.20;;;4.70;;
55647;SDS011;45266;48.756;9.246;2023-05-15T04:10:18;5.80;;;5.13;;
55647;SDS011;45266;48.756;9.246;2023-05-15T04:11:20;11.35;;;5.78;;
55647;SDS011;45266;48.756;9.246;2023-05-15T04:12:23;5.30;;;4.80;;
55647;SDS011;45266;48.756;9.246;2023-05-15T04:13:27;5.57;;;5.00;;
55647;SDS011;45266;48.756;9.246;2023-05-15T04:14:29;8.05;;;4.88;;
55647;SDS011;45266;48.756;9.246;2023-05-15T04:15:30;6.43;;;5.28;;
55647;SDS011;45266;48.756;9.246;2023-05-15T04:16:32;5.45;;;4.95;;
55647;SDS011;45266;48.756;9.246;2023-05-15T04:17:34;5.13;;;4.63;;
55647;SDS011;45266;48.756;9.246;2023-05-15T04:18:36;5.82;;;5.05;;
55647;SDS011;45266;48.756;9.246;2023-05-15T04:19:38;7.60;;;5.15;;
55647;SDS011;45266;48.756;9.246;2023-05-15T04:20:42;5.60;;;5.10;;
55647;SDS011;45266;48.756;9.246;2023-05-15T04:21:44;5.38;;;4.88;;
55647;SDS011;45266;48.756;9.246;2023-05-15T04:22:46;9.55;;;5.30;;
55647;SDS011;45266;48.756;9.246;2023-05-15T04:23:48;5.93;;;4.90;;
55647;SDS011;45266;48.756;9.246;2023-05-15T04:24:50;5.97;;;4.93;;
55647;SDS011;45266;48.756;9.246;2023-05-15T04:25:52;5.55;;;5.05;;
55647;SDS011;45266;48.756;9.246;2023-05-15T04:26:53;5.73;;;5.03;;
55647;SDS011;45266;48.756;9.246;2023-05-15T04:27:56;5.15;;;4.65;;
55647;SDS011;45266;48.756;9.246;2023-05-15T04:28:58;6.23;;;5.30;;
55647;SDS011;45266;48.756;9.246;2023-05-15T04:30:05;7.03;;;5.30;;
55647;SDS011;45266;48.756;9.246;2023-05-15T04:31:09;6.60;;;5.03;;
55647;SDS011;45266;48.756;9.246;2023-05-15T04:32:11;6.17;;;4.60;;
55647;SDS011;45266;48.756;9.246;2023-05-15T04:33:13;6.40;;;4.90;;
55647;SDS011;45266;48.756;9.246;2023-05-15T04:34:14;6.28;;;5.03;;
55647;SDS011;45266;48.756;9.246;2023-05-15T04:35:17;6.82;;;5.35;;
55647;SDS011;45266;48.756;9.246;2023-05-15T04:36:19;5.97;;;5.18;;
55647;SDS011;45266;48.756;9.246;2023-05-15T04:37:21;6.68;;;5.07;;
55647;SDS011;45266;48.756;9.246;2023-05-15T04:38:23;7.53;;;5.00;;
55647;SDS011;45266;48.756;9.246;2023-05-15T04:39:24;5.82;;;5.07;;
55647;SDS011;45266;48.756;9.246;2023-05-15T04:40:27;5.27;;;4.77;;
55647;SDS011;45266;48.756;9.246;2023-05-15T04:41:29;5.72;;;5.10;;
55647;SDS011;45266;48.756;9.246;2023-05-15T04:42:33;6.03;;;5.13;;
55647;SDS011;45266;48.756;9.246;2023-05-15T04:43:39;7.00;;;5.13;;
55647;SDS011;45266;48.756;9.246;2023-05-15T04:44:41;5.95;;;4.93;;
55647;SDS011;45266;48.756;9.246;2023-05-15T04:45:44;6.85;;;4.80;;
55647;SDS011;45266;48.756;9.246;2023-05-15T04:46:47;8.05;;;5.20;;
55647;SDS011;45266;48.756;9.246;2023-05-15T04:47:49;5.57;;;4.97;;
55647;SDS011;45266;48.756;9.246;2023-05-15T04:48:51;5.85;;;5.13;;
55647;SDS011;45266;48.756;9.246;2023-05-15T04:49:53;6.32;;;5.72;;
55647;SDS011;45266;48.756;9.246;2023-05-15T04:50:55;6.78;;;5.82;;
55647;SDS011;45266;48.756;9.246;2023-05-15T04:51:56;5.93;;;5.28;;
55647;SDS011;45266;48.756;9.246;2023-05-15T04:52:58;6.32;;;5.70;;
55647;SDS011;45266;48.756;9.246;2023-05-15T04:54:00;7.40;;;6.10;;
55647;SDS011;45266;48.756;9.246;2023-05-15T04:55:02;7.70;;;6.13;;
55647;SDS011;45266;48.756;9.246;2023-05-15T04:56:04;6.65;;;5.93;;
55647;SDS011;45266;48.756;9.246;2023-05-15T04:57:06;7.10;;;5.75;;
55647;SDS011;45266;48.756;9.246;2023-05-15T04:58:08;8.05;;;6.47;;
55647;SDS011;45266;48.756;9.246;2023-05-15T04:59:10;9.63;;;7.20;;
55647;SDS011;45266;48.756;9.246;2023-05-15T05:00:13;7.82;;;6.93;;
55647;SDS011;45266;48.756;9.246;2023-05-15T05:01:15;8.52;;;7.45;;
55647;SDS011;45266;48.756;9.246;2023-05-15T05:02:20;9.10;;;6.72;;
55647;SDS011;45266;48.756;9.246;2023-05-15T05:03:23;8.85;;;7.25;;
55647;SDS011;45266;48.756;9.246;2023-05-15T05:04:25;8.82;;;7.70;;
55647;SDS011;45266;48.756;9.246;2023-05-15T05:05:27;9.77;;;7.70;;
55647;SDS011;45266;48.756;9.246;2023-05-15T05:06:29;9.95;;;7.80;;
55647;SDS011;45266;48.756;9.246;2023-05-15T05:07:31;10.25;;;8.88;;
55647;SDS011;45266;48.756;9.246;2023-05-15T05:08:33;11.15;;;9.93;;
55647;SDS011;45266;48.756;9.246;2023-05-15T05:09:34;10.10;;;8.98;;
55647;SDS011;45266;48.756;9.246;2023-05-15T05:10:41;8.82;;;7.93;;
55647;SDS011;45266;48.756;9.246;2023-05-15T05:11:43;8.98;;;7.55;;
55647;SDS011;45266;48.756;9.246;2023-05-15T05:12:45;14.25;;;8.48;;
55647;SDS011;45266;48.756;9.246;2023-05-15T05:13:47;10.52;;;8.52;;
55647;SDS011;45266;48.756;9.246;2023-05-15T05:14:49;9.63;;;8.48;;
55647;SDS011;45266;48.756;9.246;2023-05-15T05:15:51;9.65;;;7.82;;
55647;SDS011;45266;48.756;9.246;2023-05-15T05:16:53;12.85;;;8.32;;
55647;SDS011;45266;48.756;9.246;2023-05-15T05:17:54;11.20;;;8.52;;
55647;SDS011;45266;48.756;9.246;2023-05-15T05:18:56;11.20;;;8.73;;
55647;SDS011;45266;48.756;9.246;2023-05-15T05:19:58;10.70;;;8.32;;
55647;SDS011;45266;48.756;9.246;2023-05-15T05:21:00;10.90;;;8.82;;
55647;SDS011;45266;48.756;9.246;2023-05-15T05:22:05;8.32;;;7.40;;
55647;SDS011;45266;48.756;9.246;2023-05-15T05:23:07;9.88;;;7.93;;
55647;SDS011;45266;48.756;9.246;2023-05-15T05:24:09;12.20;;;8.82;;
55647;SDS011;45266;48.756;9.246;2023-05-15T05:25:11;9.45;;;7.70;;
55647;SDS011;45266;48.756;9.246;2023-05-15T05:26:13;10.60;;;8.15;;
55647;SDS011;45266;48.756;9.246;2023-05-15T05:27:15;10.52;;;8.10;;
55647;SDS011;45266;48.756;9.246;2023-05-15T05:28:17;9.07;;;8.10;;
55647;SDS011;45266;48.756;9.246;2023-05-15T05:29:19;13.15;;;8.45;;
55647;SDS011;45266;48.756;9.246;2023-05-15T05:30:21;10.88;;;8.55;;
55647;SDS011;45266;48.756;9.246;2023-05-15T05:31:23;9.57;;;8.07;;
55647;SDS011;45266;48.756;9.246;2023-05-15T05:32:25;11.25;;;7.55;;
55647;SDS011;45266;48.756;9.246;2023-05-15T05:33:26;9.05;;;7.57;;
55647;SDS011;45266;48.756;9.246;2023-05-15T05:34:28;9.30;;;7.35;;
55647;SDS011;45266;48.756;9.246;2023-05-15T05:35:30;9.13;;;7.38;;
55647;SDS011;45266;48.756;9.246;2023-05-15T05:36:32;8.45;;;7.15;;
55647;SDS011;45266;48.756;9.246;2023-05-15T05:37:33;8.90;;;7.13;;
55647;SDS011;45266;48.756;9.246;2023-05-15T05:38:37;10.52;;;7.45;;
55647;SDS011;45266;48.756;9.246;2023-05-15T05:39:39;11.93;;;7.60;;
55647;SDS011;45266;48.756;9.246;2023-05-15T05:40:41;9.60;;;7.72;;
55647;SDS011;45266;48.756;9.246;2023-05-15T05:41:43;9.55;;;7.53;;
55647;SDS011;45266;48.756;9.246;2023-05-15T05:42:45;8.38;;;7.43;;
55647;SDS011;45266;48.756;9.246;2023-05-15T05:43:46;8.45;;;7.43;;
55647;SDS011;45266;48.756;9.246;2023-05-15T05:44:48;8.95;;;7.50;;
55647;SDS011;45266;48.756;9.246;2023-05-15T05:45:50;9.75;;;7.95;;
55647;SDS011;45266;48.756;9.246;2023-05-15T05:46:52;11.18;;;7.95;;
55647;SDS011;45266;48.756;9.246;2023-05-15T05:47:54;11.93;;;7.40;;
55647;SDS011;45266;48.756;9.246;2023-05-15T05:48:56;11.45;;;7.85;;
55647;SDS011;45266;48.756;9.246;2023-05-15T05:49:58;9.30;;;7.13;;
55647;SDS011;45266;48.756;9.246;2023-05-15T05:51:00;7.47;;;6.68;;
55647;SDS011;45266;48.756;9.246;2023-05-15T05:52:06;9.55;;;7.85;;
55647;SDS011;45266;48.756;9.246;2023-05-15T05:53:08;7.93;;;6.93;;
55647;SDS011;45266;48.756;9.246;2023-05-15T05:54:10;8.13;;;7.10;;
55647;SDS011;45266;48.756;9.246;2023-05-15T05:55:11;9.02;;;7.15;;
55647;SDS011;45266;48.756;9.246;2023-05-15T05:56:13;7.80;;;7.03;;
55647;SDS011;45266;48.756;9.246;2023-05-15T05:57:16;9.38;;;6.82;;
55647;SDS011;45266;48.756;9.246;2023-05-15T05:58:18;9.43;;;7.57;;
55647;SDS011;45266;48.756;9.246;2023-05-15T05:59:26;7.80;;;7.00;;
55647;SDS011;45266;48.756;9.246;2023-05-15T06:00:29;8.77;;;7.15;;
55647;SDS011;45266;48.756;9.246;2023-05-15T06:01:31;9.25;;;7.72;;
55647;SDS011;45266;48.756;9.246;2023-05-15T06:02:33;8.18;;;6.95;;
55647;SDS011;45266;48.756;9.246;2023-05-15T06:03:36;10.57;;;7.47;;
55647;SDS011;45266;48.756;9.246;2023-05-15T06:04:39;9.10;;;7.00;;
55647;SDS011;45266;48.756;9.246;2023-05-15T06:05:41;9.50;;;7.30;;
55647;SDS011;45266;48.756;9.246;2023-05-15T06:06:43;7.78;;;6.93;;
55647;SDS011;45266;48.756;9.246;2023-05-15T06:07:45;10.10;;;7.07;;
55647;SDS011;45266;48.756;9.246;2023-05-15T06:08:48;8.07;;;6.78;;
55647;SDS011;45266;48.756;9.246;2023-05-15T06:09:49;10.00;;;7.03;;
55647;SDS011;45266;48.756;9.246;2023-05-15T06:10:51;12.30;;;7.32;;
55647;SDS011;45266;48.756;9.246;2023-05-15T06:11:53;7.10;;;6.40;;
55647;SDS011;45266;48.756;9.246;2023-05-15T06:12:55;8.50;;;7.15;;
55647;SDS011;45266;48.756;9.246;2023-05-15T06:13:56;7.55;;;6.13;;
55647;SDS011;45266;48.756;9.246;2023-05-15T06:14:58;10.68;;;6.47;;
55647;SDS011;45266;48.756;9.246;2023-05-15T06:16:00;10.75;;;7.95;;
55647;SDS011;45266;48.756;9.246;2023-05-15T06:17:02;7.53;;;6.82;;
55647;SDS011;45266;48.756;9.246;2023-05-15T06:18:03;7.05;;;6.35;;
55647;SDS011;45266;48.756;9.246;2023-05-15T06:19:06;7.65;;;6.22;;
55647;SDS011;45266;48.756;9.246;2023-05-15T06:20:08;7.50;;;6.80;;
55647;SDS011;45266;48.756;9.246;2023-05-15T06:21:10;8.23;;;7.18;;
55647;SDS011;45266;48.756;9.246;2023-05-15T06:22:12;8.60;;;7.70;;
55647;SDS011;45266;48.756;9.246;2023-05-15T06:23:14;7.93;;;7.22;;
55647;SDS011;45266;48.756;9.246;2023-05-15T06:24:15;8.15;;;7.30;;
55647;SDS011;45266;48.756;9.246;2023-05-15T06:25:17;10.07;;;7.35;;
55647;SDS011;45266;48.756;9.246;2023-05-15T06:26:19;8.13;;;7.35;;
55647;SDS011;45266;48.756;9.246;2023-05-15T06:27:23;8.60;;;6.85;;
55647;SDS011;45266;48.756;9.246;2023-05-15T06:28:26;8.45;;;7.05;;
55647;SDS011;45266;48.756;9.246;2023-05-15T06:29:28;8.32;;;6.85;;
55647;SDS011;45266;48.756;9.246;2023-05-15T06:30:30;8.63;;;7.10;;